Aviation Digital Data Service (ADDS)

Output produced by METARs form (1827 UTC 23 February 2017)
found at http://www.aviationweather.gov/adds/metars/
 
KEWR 231720Z 2318/2424 22007KT P6SM BKN010 OVC025 
     FM231900 21009KT P6SM SCT025 
     FM240100 20005KT P6SM SCT010 BKN070 
     FM240600 VRB03KT 4SM BR BKN005 
     FM240900 VRB03KT 1SM BR BKN004 
     FM241500 19006KT 4SM BR SCT005 BKN010 
     FM241800 18008KT 6SM BR BKN020